createdAt,value
2018-06-17T00:00:05.771Z,0
2018-06-17T00:01:06.483Z,0
2018-06-17T00:02:07.195Z,0
2018-06-17T00:03:07.907Z,0
2018-06-17T00:04:08.630Z,0
2018-06-17T00:05:09.343Z,0
2018-06-17T00:06:10.057Z,0
2018-06-17T00:07:10.769Z,0
2018-06-17T00:08:11.493Z,0
2018-06-17T00:09:12.210Z,0
2018-06-17T00:10:12.934Z,0
2018-06-17T00:11:13.658Z,0
2018-06-17T00:12:14.373Z,0
2018-06-17T00:13:15.083Z,0
2018-06-17T00:14:15.794Z,0
2018-06-17T00:15:16.507Z,0
2018-06-17T00:16:17.220Z,0
2018-06-17T00:17:17.932Z,0
2018-06-17T00:18:18.644Z,0
2018-06-17T00:19:19.355Z,0
2018-06-17T00:20:20.072Z,0
2018-06-17T00:21:20.792Z,0
2018-06-17T00:22:21.506Z,0
2018-06-17T00:23:22.233Z,0
2018-06-17T00:24:22.942Z,0
2018-06-17T00:25:23.668Z,0
2018-06-17T00:26:24.393Z,0
2018-06-17T00:27:25.105Z,0
2018-06-17T00:28:25.817Z,0
2018-06-17T00:29:26.529Z,0
2018-06-17T00:30:27.241Z,0
2018-06-17T00:31:27.954Z,0
2018-06-17T00:32:28.665Z,0
2018-06-17T00:33:29.379Z,0
2018-06-17T00:34:30.102Z,0
2018-06-17T00:35:30.816Z,0
2018-06-17T00:36:31.529Z,0
2018-06-17T00:37:32.244Z,0
2018-06-17T00:38:32.958Z,0
2018-06-17T00:39:33.682Z,0
2018-06-17T00:40:34.407Z,0
2018-06-17T00:41:35.131Z,0
2018-06-17T00:42:35.843Z,0
2018-06-17T00:43:36.555Z,0
2018-06-17T00:44:37.269Z,0
2018-06-17T00:45:37.996Z,0
2018-06-17T00:46:38.714Z,0
2018-06-17T00:47:39.428Z,0
2018-06-17T00:48:40.142Z,0
2018-06-17T00:49:40.855Z,0
2018-06-17T00:50:41.566Z,0
2018-06-17T00:51:42.281Z,0
2018-06-17T00:52:42.992Z,0
2018-06-17T00:53:43.703Z,0
2018-06-17T00:54:44.417Z,0
2018-06-17T00:55:45.130Z,0
2018-06-17T00:57:46.485Z,0
2018-06-17T00:58:47.200Z,0
2018-06-17T00:59:47.913Z,0
2018-06-17T01:00:48.639Z,0
2018-06-17T01:01:49.352Z,0
2018-06-17T01:02:50.070Z,0
2018-06-17T01:03:50.793Z,0
2018-06-17T01:04:51.505Z,0
2018-06-17T01:05:52.237Z,0
2018-06-17T01:06:52.959Z,0
2018-06-17T01:07:53.673Z,0
2018-06-17T01:08:54.388Z,0
2018-06-17T01:09:55.119Z,0
2018-06-17T01:10:55.832Z,0
2018-06-17T01:11:56.545Z,0
2018-06-17T01:12:57.261Z,0
2018-06-17T01:13:57.974Z,0
2018-06-17T01:14:58.690Z,0
2018-06-17T01:15:59.402Z,0
2018-06-17T01:17:00.119Z,0
2018-06-17T01:18:00.830Z,0
2018-06-17T01:19:01.643Z,0
2018-06-17T01:20:02.261Z,0
2018-06-17T01:21:02.985Z,0
2018-06-17T01:22:03.697Z,0
2018-06-17T01:23:04.425Z,0
2018-06-17T01:24:05.140Z,0
2018-06-17T01:25:05.854Z,0
2018-06-17T01:26:06.570Z,0
2018-06-17T01:27:07.282Z,0
2018-06-17T01:28:08.008Z,0
2018-06-17T01:29:08.721Z,0
2018-06-17T01:30:09.436Z,0
2018-06-17T01:31:10.149Z,0
2018-06-17T01:32:10.864Z,0
2018-06-17T01:33:11.577Z,0
2018-06-17T01:34:12.291Z,0
2018-06-17T01:35:13.019Z,0
2018-06-17T01:36:13.733Z,0
2018-06-17T01:37:14.448Z,0
2018-06-17T01:38:15.174Z,0
2018-06-17T01:39:15.886Z,0
2018-06-17T01:40:16.599Z,0
2018-06-17T01:41:17.313Z,0
2018-06-17T01:42:18.029Z,0
2018-06-17T01:43:18.745Z,0
2018-06-17T01:44:19.457Z,0
2018-06-17T01:45:20.186Z,0
2018-06-17T01:46:20.901Z,0
2018-06-17T01:47:21.616Z,0
2018-06-17T01:48:22.330Z,0
2018-06-17T01:49:23.043Z,0
2018-06-17T01:50:23.758Z,0
2018-06-17T01:51:24.469Z,0
2018-06-17T01:52:25.195Z,0
2018-06-17T01:53:25.910Z,0
2018-06-17T01:54:26.622Z,0
2018-06-17T01:55:27.336Z,0
2018-06-17T01:56:28.049Z,0
2018-06-17T01:57:28.762Z,0
2018-06-17T01:58:29.475Z,0
2018-06-17T01:59:30.203Z,0
2018-06-17T02:00:30.916Z,0
2018-06-17T02:01:31.631Z,0
2018-06-17T02:02:32.344Z,0
2018-06-17T02:03:33.057Z,0
2018-06-17T02:04:33.771Z,0
2018-06-17T02:05:34.484Z,0
2018-06-17T02:06:35.209Z,0
2018-06-17T02:07:35.922Z,0
2018-06-17T02:08:36.634Z,0
2018-06-17T02:09:37.359Z,0
2018-06-17T02:10:38.074Z,0
2018-06-17T02:11:38.784Z,0
2018-06-17T02:12:39.495Z,0
2018-06-17T02:13:40.209Z,0
2018-06-17T02:14:40.934Z,0
2018-06-17T02:15:41.659Z,0
2018-06-17T02:16:42.386Z,0
2018-06-17T02:17:43.099Z,0
2018-06-17T02:18:43.811Z,0
2018-06-17T02:19:44.523Z,0
2018-06-17T02:20:45.236Z,0
2018-06-17T02:21:45.950Z,0
2018-06-17T02:22:46.660Z,0
2018-06-17T02:23:47.375Z,0
2018-06-17T02:24:48.101Z,0
2018-06-17T02:25:48.815Z,0
2018-06-17T02:26:49.538Z,0
2018-06-17T02:27:50.249Z,0
2018-06-17T02:28:50.963Z,0
2018-06-17T02:29:51.675Z,4
2018-06-17T02:30:52.389Z,4
2018-06-17T02:31:53.101Z,0
2018-06-17T02:32:53.814Z,4
2018-06-17T02:33:54.525Z,4
2018-06-17T02:34:55.239Z,4
2018-06-17T02:35:55.966Z,4
2018-06-17T02:36:56.681Z,4
2018-06-17T02:37:57.393Z,4
2018-06-17T02:38:58.105Z,4
2018-06-17T02:39:58.828Z,8
2018-06-17T02:40:59.553Z,4
2018-06-17T02:42:00.263Z,8
2018-06-17T02:43:00.977Z,8
2018-06-17T02:44:01.690Z,8
2018-06-17T02:45:02.424Z,8
2018-06-17T02:46:03.133Z,12
2018-06-17T02:47:03.848Z,16
2018-06-17T02:48:04.561Z,16
2018-06-17T02:49:05.275Z,16
2018-06-17T02:50:05.987Z,20
2018-06-17T02:51:06.701Z,20
2018-06-17T02:52:07.417Z,20
2018-06-17T02:53:08.141Z,24
2018-06-17T02:54:08.853Z,24
2018-06-17T02:55:09.566Z,28
2018-06-17T02:56:10.280Z,32
2018-06-17T02:57:10.995Z,36
2018-06-17T02:58:11.707Z,36
2018-06-17T02:59:12.418Z,40
2018-06-17T03:00:13.132Z,44
2018-06-17T03:01:13.848Z,52
2018-06-17T03:02:14.563Z,64
2018-06-17T03:03:15.277Z,64
2018-06-17T03:04:16.003Z,76
2018-06-17T03:05:16.728Z,84
2018-06-17T03:06:17.443Z,100
2018-06-17T03:07:18.172Z,112
2018-06-17T03:08:18.901Z,124
2018-06-17T03:09:19.613Z,136
2018-06-17T03:10:20.343Z,148
2018-06-17T03:11:21.058Z,156
2018-06-17T03:12:21.772Z,172
2018-06-17T03:13:22.487Z,184
2018-06-17T03:14:23.202Z,200
2018-06-17T03:15:23.916Z,212
2018-06-17T03:16:24.643Z,224
2018-06-17T03:17:25.357Z,236
2018-06-17T03:18:26.073Z,248
2018-06-17T03:19:26.802Z,260
2018-06-17T03:20:27.531Z,280
2018-06-17T03:21:28.247Z,300
2018-06-17T03:22:28.964Z,324
2018-06-17T03:23:29.681Z,336
2018-06-17T03:24:30.401Z,348
2018-06-17T03:25:31.116Z,360
2018-06-17T03:26:31.831Z,368
2018-06-17T03:27:32.564Z,388
2018-06-17T03:28:33.276Z,408
2018-06-17T03:29:33.991Z,440
2018-06-17T03:30:34.723Z,476
2018-06-17T03:31:35.451Z,500
2018-06-17T03:32:36.164Z,516
2018-06-17T03:33:36.881Z,528
2018-06-17T03:34:37.596Z,532
2018-06-17T03:35:38.324Z,552
2018-06-17T03:36:39.039Z,564
2018-06-17T03:37:39.754Z,604
2018-06-17T03:38:40.471Z,632
2018-06-17T03:39:41.186Z,664
2018-06-17T03:40:41.919Z,676
2018-06-17T03:41:42.643Z,688
2018-06-17T03:42:43.358Z,708
2018-06-17T03:43:44.085Z,748
2018-06-17T03:44:44.802Z,768
2018-06-17T03:45:45.550Z,820
2018-06-17T03:46:46.279Z,816
2018-06-17T03:47:46.993Z,816
2018-06-17T03:48:47.707Z,840
2018-06-17T03:49:48.421Z,864
2018-06-17T03:50:49.136Z,892
2018-06-17T03:51:49.864Z,892
2018-06-17T03:52:50.577Z,924
2018-06-17T03:53:51.297Z,964
2018-06-17T03:54:52.024Z,956
2018-06-17T03:55:52.747Z,972
2018-06-17T03:56:53.476Z,1004
2018-06-17T03:57:54.194Z,1008
2018-06-17T03:58:54.913Z,1116
2018-06-17T03:59:55.628Z,1104
2018-06-17T04:00:56.344Z,1124
2018-06-17T04:01:57.060Z,1096
2018-06-17T04:02:57.777Z,1104
2018-06-17T04:03:58.519Z,1084
2018-06-17T04:04:59.223Z,1080
2018-06-17T04:05:59.941Z,1100
2018-06-17T04:07:00.655Z,1104
2018-06-17T04:08:01.371Z,1168
2018-06-17T04:09:02.089Z,1208
2018-06-17T04:10:02.806Z,1216
2018-06-17T04:11:03.524Z,1216
2018-06-17T04:12:04.251Z,1244
2018-06-17T04:13:04.970Z,1284
2018-06-17T04:14:05.697Z,1396
2018-06-17T04:15:06.413Z,1480
2018-06-17T04:16:07.129Z,1512
2018-06-17T04:17:07.856Z,1468
2018-06-17T04:18:08.574Z,1456
2018-06-17T04:19:09.289Z,1432
2018-06-17T04:20:10.007Z,1564
2018-06-17T04:21:10.721Z,1600
2018-06-17T04:22:11.436Z,1704
2018-06-17T04:23:12.151Z,1748
2018-06-17T04:24:12.868Z,1788
2018-06-17T04:25:13.584Z,1820
2018-06-17T04:26:14.301Z,1872
2018-06-17T04:27:15.070Z,1912
2018-06-17T04:28:15.793Z,1968
2018-06-17T04:29:16.511Z,1944
2018-06-17T04:30:17.238Z,1976
2018-06-17T04:31:17.957Z,1848
2018-06-17T04:32:18.675Z,1940
2018-06-17T04:33:19.390Z,1888
2018-06-17T04:34:20.107Z,1944
2018-06-17T04:35:20.823Z,1724
2018-06-17T04:36:21.538Z,1624
2018-06-17T04:37:22.255Z,1540
2018-06-17T04:38:22.970Z,1496
2018-06-17T04:39:23.690Z,1560
2018-06-17T04:40:24.416Z,1680
2018-06-17T04:41:25.132Z,1764
2018-06-17T04:42:25.849Z,1956
2018-06-17T04:43:26.564Z,2168
2018-06-17T04:44:27.283Z,2200
2018-06-17T04:45:27.999Z,2076
2018-06-17T04:46:28.729Z,2020
2018-06-17T04:47:29.445Z,1872
2018-06-17T04:48:30.211Z,1844
2018-06-17T04:49:30.877Z,1840
2018-06-17T04:50:31.595Z,1884
2018-06-17T04:51:32.322Z,1868
2018-06-17T04:52:33.042Z,1900
2018-06-17T04:53:33.771Z,1972
2018-06-17T04:54:34.506Z,1912
2018-06-17T04:55:35.230Z,1984
2018-06-17T04:56:35.945Z,1960
2018-06-17T04:57:36.661Z,2020
2018-06-17T04:58:37.380Z,2128
2018-06-17T04:59:38.096Z,2124
2018-06-17T05:00:38.829Z,2084
2018-06-17T05:01:39.557Z,2128
2018-06-17T05:02:40.285Z,2080
2018-06-17T05:03:41.022Z,1992
2018-06-17T05:04:41.740Z,1956
2018-06-17T05:05:42.455Z,2024
2018-06-17T05:06:43.172Z,2072
2018-06-17T05:07:43.889Z,2084
2018-06-17T05:08:44.604Z,2060
2018-06-17T05:09:45.321Z,2156
2018-06-17T05:10:46.040Z,2172
2018-06-17T05:11:46.756Z,2164
2018-06-17T05:12:47.486Z,2160
2018-06-17T05:13:48.217Z,2176
2018-06-17T05:14:48.937Z,2260
2018-06-17T05:15:49.652Z,2228
2018-06-17T05:16:50.367Z,2252
2018-06-17T05:17:51.083Z,2264
2018-06-17T05:18:51.800Z,2304
2018-06-17T05:19:52.530Z,2332
2018-06-17T05:20:53.248Z,2336
2018-06-17T05:21:53.976Z,2344
2018-06-17T05:22:54.693Z,2340
2018-06-17T05:23:55.410Z,2364
2018-06-17T05:24:56.144Z,2388
2018-06-17T05:25:56.870Z,2420
2018-06-17T05:26:57.586Z,2452
2018-06-17T05:27:58.301Z,2492
2018-06-17T05:28:59.030Z,2532
2018-06-17T05:29:59.749Z,2744
2018-06-17T05:31:00.468Z,2668
2018-06-17T05:32:01.191Z,2724
2018-06-17T05:33:01.915Z,2784
2018-06-17T05:34:02.632Z,2808
2018-06-17T05:35:03.349Z,2916
2018-06-17T05:36:04.071Z,3048
2018-06-17T05:37:04.790Z,3068
2018-06-17T05:38:05.504Z,3032
2018-06-17T05:39:06.220Z,3044
2018-06-17T05:40:06.938Z,3028
2018-06-17T05:41:07.656Z,3056
2018-06-17T05:42:08.375Z,3052
2018-06-17T05:43:09.093Z,3008
2018-06-17T05:44:09.810Z,3032
2018-06-17T05:45:10.529Z,3012
2018-06-17T05:46:11.249Z,3040
2018-06-17T05:47:11.965Z,3100
2018-06-17T05:48:12.684Z,3160
2018-06-17T05:49:13.402Z,3248
2018-06-17T05:50:14.132Z,3272
2018-06-17T05:51:14.851Z,3444
2018-06-17T05:52:15.569Z,3380
2018-06-17T05:53:16.286Z,3528
2018-06-17T05:54:17.006Z,3564
2018-06-17T05:55:17.726Z,3652
2018-06-17T05:56:18.442Z,3676
2018-06-17T05:57:19.163Z,3680
2018-06-17T05:58:19.892Z,3808
2018-06-17T05:59:20.609Z,3860
2018-06-17T06:00:21.325Z,3852
2018-06-17T06:01:22.045Z,3852
2018-06-17T06:02:22.762Z,3912
2018-06-17T06:03:23.480Z,3788
2018-06-17T06:04:24.199Z,3880
2018-06-17T06:05:24.928Z,3760
2018-06-17T06:06:25.646Z,4076
2018-06-17T06:07:26.375Z,3904
2018-06-17T06:08:27.094Z,3788
2018-06-17T06:09:27.809Z,3888
2018-06-17T06:10:28.572Z,4020
2018-06-17T06:11:29.246Z,4184
2018-06-17T06:12:29.964Z,4200
2018-06-17T06:13:30.694Z,4164
2018-06-17T06:14:31.413Z,4136
2018-06-17T06:15:32.136Z,4136
2018-06-17T06:16:32.861Z,4068
2018-06-17T06:17:33.591Z,4020
2018-06-17T06:18:34.308Z,3956
2018-06-17T06:19:35.032Z,4048
2018-06-17T06:20:35.744Z,3860
2018-06-17T06:21:36.476Z,4084
2018-06-17T06:22:37.193Z,4016
2018-06-17T06:23:37.912Z,4160
2018-06-17T06:24:38.648Z,3956
2018-06-17T06:25:39.364Z,4068
2018-06-17T06:26:40.084Z,4012
2018-06-17T06:27:40.865Z,4096
2018-06-17T06:28:41.584Z,4168
2018-06-17T06:29:42.314Z,4044
2018-06-17T06:30:43.032Z,4240
2018-06-17T06:31:43.752Z,4272
2018-06-17T06:32:44.469Z,4396
2018-06-17T06:33:45.201Z,4256
2018-06-17T06:34:45.920Z,4196
2018-06-17T06:35:46.648Z,4280
2018-06-17T06:36:47.366Z,4348
2018-06-17T06:37:48.084Z,4520
2018-06-17T06:38:48.801Z,4480
2018-06-17T06:39:49.532Z,4420
2018-06-17T06:40:50.266Z,4392
2018-06-17T06:41:50.983Z,4376
2018-06-17T06:42:51.767Z,4672
2018-06-17T06:43:52.420Z,4808
2018-06-17T06:44:53.151Z,4860
2018-06-17T06:45:53.881Z,4800
2018-06-17T06:46:54.603Z,4696
2018-06-17T06:47:55.320Z,4976
2018-06-17T06:48:56.039Z,5324
2018-06-17T06:49:56.770Z,5020
2018-06-17T06:50:57.561Z,5108
2018-06-17T06:51:58.204Z,5428
2018-06-17T06:52:58.921Z,5364
2018-06-17T06:53:59.638Z,5128
2018-06-17T06:55:00.360Z,5572
2018-06-17T06:56:01.081Z,5412
2018-06-17T06:57:01.810Z,5888
2018-06-17T06:58:02.535Z,5916
2018-06-17T06:59:03.254Z,5984
2018-06-17T07:00:03.988Z,6164
2018-06-17T07:01:04.705Z,6296
2018-06-17T07:02:05.423Z,6532
2018-06-17T07:03:06.156Z,6168
2018-06-17T07:04:06.875Z,5560
2018-06-17T07:05:07.607Z,6372
2018-06-17T07:06:08.327Z,6316
2018-06-17T07:07:09.049Z,6836
2018-06-17T07:08:09.767Z,6828
2018-06-17T07:09:10.490Z,6680
2018-06-17T07:10:11.205Z,6988
2018-06-17T07:11:11.921Z,7164
2018-06-17T07:12:12.637Z,7284
2018-06-17T07:13:13.356Z,7488
2018-06-17T07:14:14.075Z,7752
2018-06-17T07:15:14.806Z,7768
2018-06-17T07:16:15.525Z,8120
2018-06-17T07:17:16.244Z,8380
2018-06-17T07:18:16.963Z,8304
2018-06-17T07:19:17.694Z,8716
2018-06-17T07:20:18.411Z,8688
2018-06-17T07:21:19.146Z,9272
2018-06-17T07:22:19.863Z,9056
2018-06-17T07:23:20.583Z,9032
2018-06-17T07:24:21.304Z,9004
2018-06-17T07:25:22.025Z,8840
2018-06-17T07:26:22.742Z,9396
2018-06-17T07:27:23.463Z,9412
2018-06-17T07:28:24.184Z,9224
2018-06-17T07:29:24.900Z,9592
2018-06-17T07:30:25.620Z,9724
2018-06-17T07:31:26.341Z,9664
2018-06-17T07:32:27.060Z,10024
2018-06-17T07:33:27.781Z,10304
2018-06-17T07:34:28.501Z,10252
2018-06-17T07:35:29.221Z,10304
2018-06-17T07:36:29.954Z,10272
2018-06-17T07:37:30.676Z,10580
2018-06-17T07:38:31.396Z,10892
2018-06-17T07:39:32.131Z,11048
2018-06-17T07:40:32.854Z,11176
2018-06-17T07:41:33.576Z,11004
2018-06-17T07:42:34.309Z,11244
2018-06-17T07:43:35.029Z,11380
2018-06-17T07:44:35.750Z,11304
2018-06-17T07:45:36.473Z,11568
2018-06-17T07:46:37.195Z,11456
2018-06-17T07:47:37.918Z,10744
2018-06-17T07:48:38.640Z,12280
2018-06-17T07:49:39.360Z,12148
2018-06-17T07:50:40.096Z,12292
2018-06-17T07:51:40.820Z,13180
2018-06-17T07:52:41.543Z,11628
2018-06-17T07:53:42.265Z,13848
2018-06-17T07:54:42.989Z,14324
2018-06-17T07:55:43.726Z,16072
2018-06-17T07:56:44.451Z,22368
2018-06-17T07:57:45.174Z,27776
2018-06-17T07:58:45.899Z,38272
2018-06-17T07:59:46.623Z,45568
2018-06-17T08:00:47.351Z,52256
2018-06-17T08:01:48.077Z,54656
2018-06-17T08:02:48.803Z,52160
2018-06-17T08:03:49.531Z,53120
2018-06-17T08:04:50.256Z,54464
2018-06-17T08:05:50.995Z,51776
2018-06-17T08:06:51.720Z,47072
2018-06-17T08:07:52.461Z,33088
2018-06-17T08:08:53.186Z,44160
2018-06-17T08:09:53.927Z,43584
2018-06-17T08:10:54.693Z,47488
2018-06-17T08:11:55.385Z,50528
2018-06-17T08:12:56.116Z,57920
2018-06-17T08:13:56.845Z,56896
2018-06-17T08:14:57.575Z,57856
2018-06-17T08:15:58.306Z,57760
2018-06-17T08:16:59.037Z,56160
2018-06-17T08:17:59.769Z,27200
2018-06-17T08:19:00.499Z,13124
2018-06-17T08:20:01.242Z,47424
2018-06-17T08:21:01.974Z,27200
2018-06-17T08:22:02.704Z,59168
2018-06-17T08:23:03.435Z,52352
2018-06-17T08:24:04.161Z,56544
2018-06-17T08:25:04.904Z,56128
2018-06-17T08:26:05.637Z,53888
2018-06-17T08:27:06.370Z,22496
2018-06-17T08:28:07.102Z,33280
2018-06-17T08:29:07.830Z,15672
2018-06-17T08:30:08.561Z,59232
2018-06-17T08:31:09.291Z,10096
2018-06-17T08:32:10.022Z,11740
2018-06-17T08:33:10.756Z,25184
2018-06-17T08:34:11.496Z,13508
2018-06-17T08:35:12.225Z,11160
2018-06-17T08:36:12.968Z,11556
2018-06-17T08:37:13.698Z,38720
2018-06-17T08:38:14.428Z,11212
2018-06-17T08:39:15.169Z,9452
2018-06-17T08:40:15.906Z,10828
2018-06-17T08:41:16.632Z,8976
2018-06-17T08:42:17.359Z,8148
2018-06-17T08:43:18.085Z,8720
2018-06-17T08:44:18.818Z,8700
2018-06-17T08:45:19.549Z,9376
2018-06-17T08:46:20.283Z,8228
2018-06-17T08:47:21.041Z,7428
2018-06-17T08:48:21.763Z,5492
2018-06-17T08:49:22.485Z,4812
2018-06-17T08:50:23.211Z,4736
2018-06-17T08:51:23.930Z,6428
2018-06-17T08:52:24.652Z,8728
2018-06-17T08:53:25.373Z,11504
2018-06-17T08:54:26.109Z,12764
2018-06-17T08:55:26.831Z,14392
2018-06-17T08:56:27.557Z,10604
2018-06-17T08:57:28.277Z,7980
2018-06-17T08:58:28.998Z,7840
2018-06-17T08:59:29.721Z,9388
2018-06-17T09:00:30.439Z,11636
2018-06-17T09:01:31.224Z,10040
2018-06-17T09:02:31.942Z,11164
2018-06-17T09:03:32.664Z,13344
2018-06-17T09:04:33.386Z,18432
2018-06-17T09:05:34.108Z,20832
2018-06-17T09:06:34.832Z,16832
2018-06-17T09:07:35.554Z,18400
2018-06-17T09:08:36.281Z,17792
2018-06-17T09:09:37.019Z,15736
2018-06-17T09:10:37.743Z,15516
2018-06-17T09:11:38.467Z,13360
2018-06-17T09:12:39.191Z,12368
2018-06-17T09:13:39.915Z,11388
2018-06-17T09:14:40.651Z,10816
2018-06-17T09:15:41.390Z,10076
2018-06-17T09:16:42.104Z,9092
2018-06-17T09:17:42.825Z,7836
2018-06-17T09:18:43.559Z,7780
2018-06-17T09:19:44.281Z,8348
2018-06-17T09:20:45.003Z,8444
2018-06-17T09:21:45.725Z,9868
2018-06-17T09:22:46.448Z,10100
2018-06-17T09:23:47.198Z,10452
2018-06-17T09:24:47.920Z,16384
2018-06-17T09:25:48.656Z,8888
2018-06-17T09:26:49.377Z,8080
2018-06-17T09:27:50.099Z,8760
2018-06-17T09:28:50.834Z,8968
2018-06-17T09:29:51.556Z,9768
2018-06-17T09:30:52.279Z,7876
2018-06-17T09:31:53.039Z,7848
2018-06-17T09:32:53.730Z,7148
2018-06-17T09:33:54.464Z,7380
2018-06-17T09:34:55.187Z,7148
2018-06-17T09:35:55.911Z,7724
2018-06-17T09:36:56.635Z,9356
2018-06-17T09:37:57.366Z,11592
2018-06-17T09:38:58.099Z,10412
2018-06-17T09:39:58.829Z,8988
2018-06-17T09:40:59.554Z,8160
2018-06-17T09:42:00.272Z,8216
2018-06-17T09:43:00.993Z,9428
2018-06-17T09:44:01.742Z,9636
2018-06-17T09:45:02.468Z,10200
2018-06-17T09:46:03.184Z,10064
2018-06-17T09:47:03.912Z,10596
2018-06-17T09:48:04.664Z,12488
2018-06-17T09:49:05.385Z,11456
2018-06-17T09:50:06.117Z,13036
2018-06-17T09:51:06.838Z,13404
2018-06-17T09:52:07.611Z,9608
2018-06-17T09:53:08.306Z,10916
2018-06-17T09:54:09.032Z,13080
2018-06-17T09:55:09.750Z,15104
2018-06-17T09:56:10.470Z,14732
2018-06-17T09:57:11.193Z,13024
2018-06-17T09:58:11.915Z,10876
2018-06-17T09:59:12.635Z,11004
2018-06-17T10:00:13.369Z,11448
2018-06-17T10:01:14.092Z,12096
2018-06-17T10:02:14.826Z,11100
2018-06-17T10:03:15.548Z,9916
2018-06-17T10:04:16.281Z,9768
2018-06-17T10:05:16.999Z,9380
2018-06-17T10:06:17.721Z,7452
2018-06-17T10:07:18.444Z,7328
2018-06-17T10:08:19.178Z,7208
2018-06-17T10:09:19.900Z,7760
2018-06-17T10:10:20.646Z,8176
2018-06-17T10:11:21.357Z,8376
2018-06-17T10:12:22.077Z,7452
2018-06-17T10:13:22.796Z,9136
2018-06-17T10:14:23.519Z,13388
2018-06-17T10:15:24.241Z,11532
2018-06-17T10:16:24.964Z,8996
2018-06-17T10:17:25.688Z,9496
2018-06-17T10:18:26.410Z,14164
2018-06-17T10:19:27.142Z,23712
2018-06-17T10:20:27.866Z,11764
2018-06-17T10:21:28.588Z,12244
2018-06-17T10:22:29.310Z,11212
2018-06-17T10:23:30.034Z,11004
2018-06-17T10:24:30.773Z,8160
2018-06-17T10:25:31.505Z,8196
2018-06-17T10:26:32.230Z,9180
2018-06-17T10:27:32.949Z,11520
2018-06-17T10:28:33.667Z,13448
2018-06-17T10:29:34.427Z,11968
2018-06-17T10:30:35.112Z,9956
2018-06-17T10:31:35.847Z,9076
2018-06-17T10:32:36.570Z,11520
2018-06-17T10:33:37.304Z,13468
2018-06-17T10:34:38.025Z,11592
2018-06-17T10:35:38.747Z,11472
2018-06-17T10:36:39.471Z,10880
2018-06-17T10:37:40.194Z,10016
2018-06-17T10:38:40.916Z,9552
2018-06-17T10:39:41.636Z,8876
2018-06-17T10:40:42.362Z,10140
2018-06-17T10:41:43.096Z,13276
2018-06-17T10:42:43.818Z,13096
2018-06-17T10:43:44.540Z,10580
2018-06-17T10:44:45.276Z,9708
2018-06-17T10:45:46.003Z,11404
2018-06-17T10:46:46.719Z,10584
2018-06-17T10:47:47.441Z,10452
2018-06-17T10:48:48.177Z,8308
2018-06-17T10:49:48.895Z,6680
2018-06-17T10:50:49.613Z,6204
2018-06-17T10:51:50.335Z,5936
2018-06-17T10:52:51.057Z,9728
2018-06-17T10:53:51.779Z,11368
2018-06-17T10:54:52.501Z,12704
2018-06-17T10:55:53.326Z,10116
2018-06-17T10:56:53.957Z,11804
2018-06-17T10:57:54.690Z,15036
2018-06-17T10:58:55.411Z,16444
2018-06-17T10:59:56.137Z,15104
2018-06-17T11:00:56.871Z,15520
2018-06-17T11:01:57.604Z,12744
2018-06-17T11:02:58.325Z,31488
2018-06-17T11:03:59.061Z,21216
2018-06-17T11:04:59.785Z,23648
2018-06-17T11:06:00.508Z,22272
2018-06-17T11:07:01.233Z,19104
2018-06-17T11:08:01.953Z,22016
2018-06-17T11:09:02.678Z,18304
2018-06-17T11:10:03.415Z,16264
2018-06-17T11:11:04.137Z,16896
2018-06-17T11:12:04.864Z,11220
2018-06-17T11:13:05.611Z,9520
2018-06-17T11:14:06.320Z,7712
2018-06-17T11:15:07.043Z,6788
2018-06-17T11:16:07.763Z,6128
2018-06-17T11:17:08.497Z,6356
2018-06-17T11:18:09.216Z,7072
2018-06-17T11:19:09.936Z,6964
2018-06-17T11:20:10.674Z,7496
2018-06-17T11:21:11.393Z,8756
2018-06-17T11:22:12.112Z,9920
2018-06-17T11:23:12.836Z,10612
2018-06-17T11:24:13.570Z,11400
2018-06-17T11:25:14.294Z,11804
2018-06-17T11:26:15.020Z,11324
2018-06-17T11:27:15.857Z,10856
2018-06-17T11:28:16.578Z,10780
2018-06-17T11:29:17.300Z,12088
2018-06-17T11:30:18.032Z,13300
2018-06-17T11:31:18.767Z,15664
2018-06-17T11:32:19.489Z,15424
2018-06-17T11:33:20.208Z,17952
2018-06-17T11:34:20.930Z,18432
2018-06-17T11:35:21.651Z,17792
2018-06-17T11:36:22.376Z,16288
2018-06-17T11:37:23.102Z,18176
2018-06-17T11:38:23.824Z,14580
2018-06-17T11:39:24.545Z,13816
2018-06-17T11:40:25.266Z,13160
2018-06-17T11:41:25.996Z,12736
2018-06-17T11:42:26.721Z,11956
2018-06-17T11:43:27.454Z,11464
2018-06-17T11:44:28.174Z,11716
2018-06-17T11:45:28.896Z,9808
2018-06-17T11:46:29.617Z,9876
2018-06-17T11:47:30.341Z,9628
2018-06-17T11:48:31.060Z,10684
2018-06-17T11:49:31.785Z,9432
2018-06-17T11:50:32.518Z,9080
2018-06-17T11:51:33.243Z,7988
2018-06-17T11:52:33.958Z,7340
2018-06-17T11:53:34.697Z,8708
2018-06-17T11:54:35.429Z,10944
2018-06-17T11:55:36.149Z,12612
2018-06-17T11:56:36.871Z,13872
2018-06-17T11:57:37.593Z,15664
2018-06-17T11:58:38.318Z,17600
2018-06-17T11:59:39.095Z,17248
2018-06-17T12:00:39.775Z,15192
2018-06-17T12:01:40.497Z,17664
2018-06-17T12:02:41.218Z,16768
2018-06-17T12:03:41.942Z,18496
2018-06-17T12:04:42.667Z,18048
2018-06-17T12:05:43.390Z,21088
2018-06-17T12:06:44.118Z,22144
2018-06-17T12:07:44.837Z,27776
2018-06-17T12:08:45.574Z,26656
2018-06-17T12:09:46.302Z,25952
2018-06-17T12:10:47.021Z,26464
2018-06-17T12:11:47.756Z,26944
2018-06-17T12:12:48.493Z,22752
2018-06-17T12:13:49.229Z,19296
2018-06-17T12:14:50.028Z,17984
2018-06-17T12:15:50.697Z,15108
2018-06-17T12:16:51.432Z,12132
2018-06-17T12:17:52.168Z,10312
2018-06-17T12:18:52.895Z,10664
2018-06-17T12:19:53.616Z,11868
2018-06-17T12:20:54.340Z,15440
2018-06-17T12:21:55.078Z,19872
2018-06-17T12:22:55.801Z,23488
2018-06-17T12:23:56.535Z,19648
2018-06-17T12:24:57.275Z,32128
2018-06-17T12:25:58.001Z,31616
2018-06-17T12:26:58.726Z,28864
2018-06-17T12:27:59.453Z,28736
2018-06-17T12:29:00.182Z,33248
2018-06-17T12:30:00.908Z,40448
2018-06-17T12:31:01.650Z,50688
2018-06-17T12:32:02.376Z,57600
2018-06-17T12:33:03.119Z,40608
2018-06-17T12:34:03.847Z,23040
2018-06-17T12:35:04.588Z,23584
2018-06-17T12:36:05.319Z,40384
2018-06-17T12:37:06.060Z,34240
2018-06-17T12:38:06.793Z,40576
2018-06-17T12:39:07.524Z,27296
2018-06-17T12:40:08.250Z,0
2018-06-17T12:41:08.980Z,25952
2018-06-17T12:42:09.707Z,17216
2018-06-17T12:43:10.439Z,40000
2018-06-17T12:44:11.173Z,21728
2018-06-17T12:45:11.901Z,21280
2018-06-17T12:46:12.632Z,39712
2018-06-17T12:47:13.363Z,30592
2018-06-17T12:48:14.104Z,21504
2018-06-17T12:49:14.837Z,14716
2018-06-17T12:50:15.567Z,15656
2018-06-17T12:51:16.300Z,15744
2018-06-17T12:52:17.031Z,16928
2018-06-17T12:53:17.766Z,17344
2018-06-17T12:54:18.486Z,17408
2018-06-17T12:55:19.219Z,18816
2018-06-17T12:56:19.949Z,17272
2018-06-17T12:57:20.679Z,18592
2018-06-17T12:58:21.407Z,16704
2018-06-17T12:59:22.148Z,17632
2018-06-17T13:00:22.878Z,19520
2018-06-17T13:01:23.607Z,11468
2018-06-17T13:02:24.346Z,17184
2018-06-17T13:03:25.073Z,13496
2018-06-17T13:04:25.803Z,11548
2018-06-17T13:05:26.535Z,9732
2018-06-17T13:06:27.275Z,9236
2018-06-17T13:07:28.001Z,8764
2018-06-17T13:08:28.744Z,8548
2018-06-17T13:09:29.470Z,8648
2018-06-17T13:10:30.198Z,8036
2018-06-17T13:11:30.939Z,7864
2018-06-17T13:12:31.665Z,7860
2018-06-17T13:13:32.388Z,7540
2018-06-17T13:14:33.114Z,7596
2018-06-17T13:15:33.850Z,7556
2018-06-17T13:16:34.586Z,7408
2018-06-17T13:17:35.310Z,7644
2018-06-17T13:18:36.033Z,7856
2018-06-17T13:19:36.770Z,8068
2018-06-17T13:20:37.492Z,8056
2018-06-17T13:21:38.269Z,7920
2018-06-17T13:22:38.934Z,8340
2018-06-17T13:23:39.658Z,8224
2018-06-17T13:24:40.378Z,8552
2018-06-17T13:25:41.101Z,8736
2018-06-17T13:26:41.824Z,9580
2018-06-17T13:27:42.543Z,8272
2018-06-17T13:28:43.279Z,9932
2018-06-17T13:29:44.002Z,10072
2018-06-17T13:30:44.724Z,10064
2018-06-17T13:31:45.446Z,11128
2018-06-17T13:32:46.169Z,11764
2018-06-17T13:33:46.897Z,12160
2018-06-17T13:34:47.632Z,12200
2018-06-17T13:35:48.355Z,13256
2018-06-17T13:36:49.077Z,13800
2018-06-17T13:37:49.818Z,15212
2018-06-17T13:38:50.539Z,10448
2018-06-17T13:39:51.259Z,14248